createdAt,value
2018-07-14T00:00:06.568Z,18.07
2018-07-14T00:01:06.565Z,18.05
2018-07-14T00:02:06.562Z,17.94
2018-07-14T00:03:06.560Z,18.07
2018-07-14T00:04:06.554Z,17.92
2018-07-14T00:05:06.551Z,17.89
2018-07-14T00:06:06.547Z,17.94
2018-07-14T00:07:06.544Z,17.95
2018-07-14T00:08:06.541Z,18.00
2018-07-14T00:09:06.536Z,17.98
2018-07-14T00:10:06.674Z,17.90
2018-07-14T00:11:06.530Z,17.90
2018-07-14T00:12:06.525Z,17.85
2018-07-14T00:13:06.521Z,17.85
2018-07-14T00:14:06.521Z,17.94
2018-07-14T00:15:06.515Z,17.94
2018-07-14T00:16:06.511Z,17.87
2018-07-14T00:17:06.507Z,17.83
2018-07-14T00:18:06.504Z,17.86
2018-07-14T00:19:06.502Z,17.76
2018-07-14T00:20:06.496Z,17.83
2018-07-14T00:21:06.492Z,17.83
2018-07-14T00:22:06.489Z,17.82
2018-07-14T00:23:06.485Z,17.79
2018-07-14T00:24:06.481Z,17.85
2018-07-14T00:25:06.477Z,17.79
2018-07-14T00:26:06.474Z,17.78
2018-07-14T00:27:06.471Z,17.72
2018-07-14T00:28:06.469Z,17.74
2018-07-14T00:29:06.462Z,17.72
2018-07-14T00:30:06.521Z,17.78
2018-07-14T00:31:06.457Z,17.68
2018-07-14T00:32:06.451Z,17.71
2018-07-14T00:33:06.448Z,17.72
2018-07-14T00:34:06.445Z,17.72
2018-07-14T00:35:06.441Z,17.64
2018-07-14T00:36:06.440Z,17.63
2018-07-14T00:37:06.432Z,17.59
2018-07-14T00:38:06.428Z,17.63
2018-07-14T00:39:06.431Z,17.60
2018-07-14T00:40:06.421Z,17.56
2018-07-14T00:41:06.422Z,17.42
2018-07-14T00:42:06.415Z,17.49
2018-07-14T00:43:06.410Z,17.52
2018-07-14T00:44:06.405Z,17.54
2018-07-14T00:45:06.402Z,17.49
2018-07-14T00:46:06.398Z,17.42
2018-07-14T00:47:06.395Z,17.39
2018-07-14T00:48:06.390Z,17.36
2018-07-14T00:49:06.386Z,17.36
2018-07-14T00:50:06.383Z,17.41
2018-07-14T00:51:06.379Z,17.39
2018-07-14T00:52:06.375Z,17.34
2018-07-14T00:53:06.375Z,17.38
2018-07-14T00:54:06.367Z,17.38
2018-07-14T00:55:06.363Z,17.36
2018-07-14T00:56:06.359Z,17.36
2018-07-14T00:57:06.360Z,17.34
2018-07-14T00:58:06.351Z,17.34
2018-07-14T00:59:06.348Z,17.26
2018-07-14T01:00:06.343Z,17.31
2018-07-14T01:01:06.339Z,17.27
2018-07-14T01:02:06.335Z,17.31
2018-07-14T01:03:06.332Z,17.26
2018-07-14T01:04:06.327Z,17.22
2018-07-14T01:05:06.323Z,17.33
2018-07-14T01:06:06.319Z,17.22
2018-07-14T01:07:06.320Z,17.33
2018-07-14T01:08:06.311Z,17.23
2018-07-14T01:09:06.307Z,17.31
2018-07-14T01:10:06.304Z,17.22
2018-07-14T01:11:06.299Z,17.24
2018-07-14T01:12:06.295Z,17.20
2018-07-14T01:13:06.290Z,17.22
2018-07-14T01:14:06.287Z,17.24
2018-07-14T01:15:06.289Z,17.19
2018-07-14T01:16:06.280Z,17.23
2018-07-14T01:17:06.274Z,17.19
2018-07-14T01:18:06.270Z,17.16
2018-07-14T01:19:06.267Z,17.12
2018-07-14T01:20:06.262Z,17.12
2018-07-14T01:21:06.258Z,17.08
2018-07-14T01:22:06.257Z,17.19
2018-07-14T01:23:06.250Z,17.08
2018-07-14T01:24:06.247Z,17.05
2018-07-14T01:25:06.241Z,17.06
2018-07-14T01:26:06.240Z,17.06
2018-07-14T01:27:06.233Z,16.97
2018-07-14T01:28:06.228Z,17.05
2018-07-14T01:29:06.224Z,17.02
2018-07-14T01:30:06.221Z,17.01
2018-07-14T01:31:06.218Z,16.96
2018-07-14T01:32:06.211Z,16.99
2018-07-14T01:33:06.210Z,17.04
2018-07-14T01:34:06.203Z,17.02
2018-07-14T01:35:06.201Z,16.96
2018-07-14T01:36:06.194Z,17.02
2018-07-14T01:37:06.190Z,16.99
2018-07-14T01:38:06.186Z,16.93
2018-07-14T01:39:06.182Z,16.97
2018-07-14T01:40:06.177Z,16.93
2018-07-14T01:41:06.174Z,16.96
2018-07-14T01:42:06.173Z,16.94
2018-07-14T01:43:06.165Z,16.93
2018-07-14T01:44:06.160Z,16.87
2018-07-14T01:45:06.156Z,16.96
2018-07-14T01:46:06.152Z,16.89
2018-07-14T01:47:06.148Z,16.93
2018-07-14T01:48:06.143Z,16.86
2018-07-14T01:49:06.139Z,16.94
2018-07-14T01:50:06.135Z,16.83
2018-07-14T01:51:06.132Z,16.84
2018-07-14T01:52:06.125Z,16.76
2018-07-14T01:53:06.121Z,16.76
2018-07-14T01:54:06.117Z,16.78
2018-07-14T01:55:06.113Z,16.78
2018-07-14T01:56:06.115Z,16.78
2018-07-14T01:57:06.104Z,16.79
2018-07-14T01:58:06.102Z,16.76
2018-07-14T01:59:06.095Z,16.81
2018-07-14T02:00:06.091Z,16.71
2018-07-14T02:01:06.086Z,16.71
2018-07-14T02:02:06.082Z,16.76
2018-07-14T02:03:06.078Z,16.71
2018-07-14T02:04:06.073Z,16.72
2018-07-14T02:05:06.072Z,16.74
2018-07-14T02:06:06.067Z,16.74
2018-07-14T02:07:06.062Z,16.76
2018-07-14T02:08:06.109Z,16.74
2018-07-14T02:09:06.051Z,16.75
2018-07-14T02:10:06.047Z,16.75
2018-07-14T02:11:06.043Z,16.66
2018-07-14T02:12:06.038Z,16.65
2018-07-14T02:13:06.034Z,16.66
2018-07-14T02:14:06.033Z,16.71
2018-07-14T02:15:06.029Z,16.65
2018-07-14T02:16:06.020Z,16.66
2018-07-14T02:17:06.018Z,16.69
2018-07-14T02:18:06.012Z,16.60
2018-07-14T02:19:06.008Z,16.58
2018-07-14T02:20:06.003Z,16.50
2018-07-14T02:21:05.999Z,16.56
2018-07-14T02:22:05.994Z,16.60
2018-07-14T02:23:05.989Z,16.54
2018-07-14T02:24:05.984Z,16.50
2018-07-14T02:25:05.981Z,16.57
2018-07-14T02:26:05.976Z,16.56
2018-07-14T02:27:05.975Z,16.50
2018-07-14T02:28:05.966Z,16.57
2018-07-14T02:29:05.964Z,16.57
2018-07-14T02:30:05.958Z,16.53
2018-07-14T02:31:05.953Z,16.57
2018-07-14T02:32:05.947Z,16.50
2018-07-14T02:33:05.944Z,16.50
2018-07-14T02:34:05.942Z,16.43
2018-07-14T02:35:05.938Z,16.50
2018-07-14T02:36:05.931Z,16.50
2018-07-14T02:37:05.925Z,16.41
2018-07-14T02:38:05.922Z,16.36
2018-07-14T02:39:05.917Z,16.39
2018-07-14T02:40:05.911Z,16.31
2018-07-14T02:41:05.906Z,16.29
2018-07-14T02:42:05.903Z,16.26
2018-07-14T02:43:05.898Z,16.16
2018-07-14T02:44:05.893Z,16.21
2018-07-14T02:45:05.891Z,16.26
2018-07-14T02:46:05.884Z,16.31
2018-07-14T02:47:05.879Z,16.31
2018-07-14T02:48:05.874Z,16.33
2018-07-14T02:49:05.869Z,16.29
2018-07-14T02:50:05.876Z,16.41
2018-07-14T02:51:05.861Z,16.33
2018-07-14T02:52:05.855Z,16.29
2018-07-14T02:53:05.851Z,16.32
2018-07-14T02:54:05.847Z,16.26
2018-07-14T02:55:06.045Z,16.35
2018-07-14T02:56:05.836Z,16.21
2018-07-14T02:57:05.832Z,16.28
2018-07-14T02:58:05.828Z,16.29
2018-07-14T02:59:05.824Z,16.28
2018-07-14T03:00:05.818Z,16.24
2018-07-14T03:01:05.813Z,16.26
2018-07-14T03:02:05.811Z,16.17
2018-07-14T03:03:05.804Z,16.24
2018-07-14T03:04:05.800Z,16.26
2018-07-14T03:05:05.799Z,16.23
2018-07-14T03:06:05.791Z,16.21
2018-07-14T03:07:05.785Z,16.21
2018-07-14T03:08:05.787Z,16.13
2018-07-14T03:09:05.779Z,16.26
2018-07-14T03:10:05.772Z,16.10
2018-07-14T03:11:05.768Z,16.08
2018-07-14T03:12:05.761Z,16.15
2018-07-14T03:13:05.757Z,16.09
2018-07-14T03:14:05.752Z,16.12
2018-07-14T03:15:05.748Z,16.13
2018-07-14T03:16:05.744Z,16.09
2018-07-14T03:17:05.739Z,16.08
2018-07-14T03:18:05.738Z,16.05
2018-07-14T03:19:05.733Z,16.08
2018-07-14T03:20:05.724Z,16.08
2018-07-14T03:21:05.719Z,16.08
2018-07-14T03:22:05.719Z,16.09
2018-07-14T03:23:05.710Z,16.13
2018-07-14T03:24:05.704Z,16.09
2018-07-14T03:25:05.702Z,16.02
2018-07-14T03:26:05.700Z,16.01
2018-07-14T03:27:05.690Z,15.98
2018-07-14T03:28:05.684Z,16.00
2018-07-14T03:29:05.683Z,15.98
2018-07-14T03:30:05.676Z,16.02
2018-07-14T03:31:05.672Z,15.91
2018-07-14T03:32:05.666Z,15.95
2018-07-14T03:33:05.664Z,15.97
2018-07-14T03:34:05.661Z,15.97
2018-07-14T03:35:05.655Z,15.97
2018-07-14T03:36:05.647Z,15.98
2018-07-14T03:37:05.642Z,15.97
2018-07-14T03:38:05.642Z,15.92
2018-07-14T03:39:05.637Z,15.98
2018-07-14T03:40:05.627Z,15.91
2018-07-14T03:41:05.825Z,15.95
2018-07-14T03:42:05.631Z,15.86
2018-07-14T03:43:05.613Z,15.98
2018-07-14T03:44:05.607Z,15.86
2018-07-14T03:45:05.605Z,15.88
2018-07-14T03:46:05.604Z,15.95
2018-07-14T03:47:05.600Z,15.88
2018-07-14T03:48:05.588Z,15.88
2018-07-14T03:49:05.585Z,15.91
2018-07-14T03:50:05.586Z,15.90
2018-07-14T03:51:05.578Z,15.82
2018-07-14T03:52:05.568Z,15.83
2018-07-14T03:53:05.570Z,15.86
2018-07-14T03:54:05.560Z,15.90
2018-07-14T03:55:05.554Z,15.83
2018-07-14T03:56:05.551Z,15.84
2018-07-14T03:57:05.546Z,15.84
2018-07-14T03:58:05.539Z,15.88
2018-07-14T03:59:05.569Z,15.79
2018-07-14T04:00:05.528Z,15.77
2018-07-14T04:01:05.523Z,15.77
2018-07-14T04:02:05.519Z,15.77
2018-07-14T04:03:05.515Z,15.73
2018-07-14T04:04:05.509Z,15.77
2018-07-14T04:05:05.504Z,15.86
2018-07-14T04:06:05.502Z,15.88
2018-07-14T04:07:05.499Z,15.80
2018-07-14T04:08:05.497Z,15.82
2018-07-14T04:09:05.484Z,15.80
2018-07-14T04:10:05.480Z,15.76
2018-07-14T04:11:05.477Z,15.75
2018-07-14T04:12:05.469Z,15.77
2018-07-14T04:13:05.464Z,15.73
2018-07-14T04:14:05.462Z,15.83
2018-07-14T04:15:05.458Z,15.80
2018-07-14T04:16:05.453Z,15.84
2018-07-14T04:17:05.445Z,15.88
2018-07-14T04:18:05.440Z,15.90
2018-07-14T04:19:05.439Z,15.98
2018-07-14T04:20:05.429Z,15.94
2018-07-14T04:21:05.425Z,16.01
2018-07-14T04:22:05.420Z,15.98
2018-07-14T04:23:05.417Z,16.04
2018-07-14T04:24:05.413Z,16.09
2018-07-14T04:25:05.406Z,16.05
2018-07-14T04:26:05.401Z,16.13
2018-07-14T04:27:05.397Z,16.09
2018-07-14T04:28:05.394Z,16.09
2018-07-14T04:29:05.389Z,16.16
2018-07-14T04:30:05.386Z,16.13
2018-07-14T04:31:05.378Z,16.21
2018-07-14T04:32:05.379Z,16.28
2018-07-14T04:33:05.368Z,16.08
2018-07-14T04:34:05.367Z,16.13
2018-07-14T04:35:05.359Z,16.28
2018-07-14T04:36:05.354Z,16.23
2018-07-14T04:37:05.349Z,16.20
2018-07-14T04:38:05.345Z,16.17
2018-07-14T04:39:05.343Z,16.17
2018-07-14T04:40:05.334Z,16.12
2018-07-14T04:41:05.333Z,16.04
2018-07-14T04:42:05.326Z,16.23
2018-07-14T04:43:05.523Z,16.24
2018-07-14T04:44:05.320Z,16.31
2018-07-14T04:45:05.313Z,16.23
2018-07-14T04:46:05.306Z,16.28
2018-07-14T04:47:05.302Z,16.26
2018-07-14T04:48:05.296Z,16.16
2018-07-14T04:49:05.291Z,16.39
2018-07-14T04:50:05.286Z,16.42
2018-07-14T04:51:05.284Z,16.41
2018-07-14T04:52:05.277Z,16.42
2018-07-14T04:53:05.280Z,16.41
2018-07-14T04:54:05.267Z,16.42
2018-07-14T04:55:05.263Z,16.49
2018-07-14T04:56:05.257Z,16.53
2018-07-14T04:57:05.253Z,16.50
2018-07-14T04:58:05.248Z,16.58
2018-07-14T04:59:05.248Z,16.65
2018-07-14T05:00:05.240Z,16.61
2018-07-14T05:01:05.234Z,16.58
2018-07-14T05:02:05.230Z,16.61
2018-07-14T05:03:05.226Z,16.60
2018-07-14T05:04:05.219Z,16.64
2018-07-14T05:05:05.216Z,16.74
2018-07-14T05:06:05.211Z,16.68
2018-07-14T05:07:05.207Z,16.68
2018-07-14T05:08:05.202Z,16.71
2018-07-14T05:09:05.197Z,16.71
2018-07-14T05:10:05.197Z,16.58
2018-07-14T05:11:05.190Z,16.71
2018-07-14T05:12:05.184Z,16.79
2018-07-14T05:13:05.181Z,16.84
2018-07-14T05:14:05.176Z,16.97
2018-07-14T05:15:05.373Z,16.97
2018-07-14T05:16:05.166Z,16.94
2018-07-14T05:17:05.162Z,16.86
2018-07-14T05:18:05.157Z,17.02
2018-07-14T05:19:05.154Z,17.01
2018-07-14T05:20:05.148Z,17.05
2018-07-14T05:21:05.144Z,17.12
2018-07-14T05:22:05.142Z,17.11
2018-07-14T05:23:05.136Z,17.19
2018-07-14T05:24:05.135Z,17.23
2018-07-14T05:25:05.129Z,17.16
2018-07-14T05:26:05.128Z,17.31
2018-07-14T05:27:05.119Z,17.30
2018-07-14T05:28:05.114Z,17.38
2018-07-14T05:29:05.110Z,17.38
2018-07-14T05:30:05.107Z,17.38
2018-07-14T05:31:05.103Z,17.51
2018-07-14T05:32:05.103Z,17.46
2018-07-14T05:33:05.095Z,17.60
2018-07-14T05:34:05.091Z,17.60
2018-07-14T05:35:05.088Z,17.63
2018-07-14T05:36:05.107Z,17.72
2018-07-14T05:37:05.282Z,17.71
2018-07-14T05:38:05.078Z,17.78
2018-07-14T05:39:05.076Z,17.80
2018-07-14T05:40:05.068Z,17.95
2018-07-14T05:41:05.065Z,17.90
2018-07-14T05:42:05.062Z,17.94
2018-07-14T05:43:05.059Z,17.92
2018-07-14T05:44:05.105Z,17.89
2018-07-14T05:45:05.051Z,18.00
2018-07-14T05:46:05.048Z,17.98
2018-07-14T05:47:05.045Z,18.07
2018-07-14T05:48:05.043Z,18.08
2018-07-14T05:49:05.042Z,18.04
2018-07-14T05:50:05.035Z,18.05
2018-07-14T05:51:05.083Z,18.00
2018-07-14T05:52:05.079Z,18.07
2018-07-14T05:53:05.024Z,18.10
2018-07-14T05:54:05.021Z,17.95
2018-07-14T05:55:05.023Z,17.97
2018-07-14T05:56:05.014Z,17.94
2018-07-14T05:57:05.011Z,18.07
2018-07-14T05:58:05.008Z,18.05
2018-07-14T05:59:05.005Z,18.13
2018-07-14T06:00:05.004Z,18.20
2018-07-14T06:01:04.998Z,18.33
2018-07-14T06:02:04.994Z,18.35
2018-07-14T06:03:04.994Z,18.40
2018-07-14T06:04:04.991Z,18.49
2018-07-14T06:05:04.986Z,18.59
2018-07-14T06:06:04.983Z,18.60
2018-07-14T06:07:04.980Z,18.62
2018-07-14T06:08:04.979Z,18.62
2018-07-14T06:09:04.973Z,18.59
2018-07-14T06:10:04.971Z,18.59
2018-07-14T06:11:04.970Z,18.56
2018-07-14T06:12:04.964Z,18.55
2018-07-14T06:13:04.965Z,18.60
2018-07-14T06:14:04.965Z,18.63
2018-07-14T06:15:04.957Z,18.80
2018-07-14T06:16:04.953Z,18.66
2018-07-14T06:17:04.951Z,18.66
2018-07-14T06:18:04.952Z,18.75
2018-07-14T06:19:04.946Z,18.74
2018-07-14T06:20:04.942Z,18.74
2018-07-14T06:21:04.940Z,18.74
2018-07-14T06:22:04.938Z,18.71
2018-07-14T06:23:04.935Z,18.83
2018-07-14T06:24:04.931Z,18.83
2018-07-14T06:25:04.928Z,18.84
2018-07-14T06:26:04.926Z,18.86
2018-07-14T06:27:04.926Z,18.95
2018-07-14T06:28:04.919Z,18.92
2018-07-14T06:29:04.920Z,19.09
2018-07-14T06:30:04.915Z,19.15
2018-07-14T06:31:04.919Z,19.12
2018-07-14T06:32:04.993Z,19.27
2018-07-14T06:33:04.911Z,19.26
2018-07-14T06:34:04.905Z,19.30
2018-07-14T06:35:04.906Z,19.36
2018-07-14T06:36:04.902Z,19.40
2018-07-14T06:37:04.897Z,19.49
2018-07-14T06:38:04.894Z,19.55
2018-07-14T06:39:04.894Z,19.63
2018-07-14T06:40:04.890Z,19.67
2018-07-14T06:41:04.887Z,19.71
2018-07-14T06:42:05.088Z,19.64
2018-07-14T06:43:04.886Z,19.69
2018-07-14T06:44:04.880Z,19.64
2018-07-14T06:45:04.879Z,19.77
2018-07-14T06:46:04.877Z,19.77
2018-07-14T06:47:04.875Z,19.94
2018-07-14T06:48:04.875Z,19.92
2018-07-14T06:49:04.875Z,20.06
2018-07-14T06:50:04.868Z,19.99
2018-07-14T06:51:04.866Z,20.11
2018-07-14T06:52:04.863Z,20.31
2018-07-14T06:53:04.869Z,20.44
2018-07-14T06:54:04.860Z,20.37
2018-07-14T06:55:04.863Z,20.37
2018-07-14T06:56:04.856Z,20.31
2018-07-14T06:57:04.854Z,20.21
2018-07-14T06:58:04.857Z,20.24
2018-07-14T06:59:04.854Z,20.39
2018-07-14T07:00:04.848Z,20.52
2018-07-14T07:01:04.847Z,20.59
2018-07-14T07:02:04.846Z,20.62
2018-07-14T07:03:04.844Z,20.58
2018-07-14T07:04:04.847Z,20.56
2018-07-14T07:05:04.840Z,20.69
2018-07-14T07:06:04.839Z,20.84
2018-07-14T07:07:04.837Z,20.77
2018-07-14T07:08:04.835Z,20.87
2018-07-14T07:09:04.833Z,20.96
2018-07-14T07:10:04.832Z,20.93
2018-07-14T07:11:04.832Z,21.05
2018-07-14T07:12:04.829Z,21.09
2018-07-14T07:13:04.831Z,21.32
2018-07-14T07:14:04.827Z,21.33
2018-07-14T07:15:04.832Z,21.50
2018-07-14T07:16:04.825Z,21.55
2018-07-14T07:17:04.827Z,21.82
2018-07-14T07:18:04.826Z,21.91
2018-07-14T07:19:04.825Z,22.13
2018-07-14T07:20:04.822Z,22.14
2018-07-14T07:21:04.823Z,22.22
2018-07-14T07:22:04.826Z,22.20
2018-07-14T07:23:04.825Z,22.38
2018-07-14T07:24:04.825Z,22.43
2018-07-14T07:25:04.829Z,22.48
2018-07-14T07:26:05.030Z,22.48
2018-07-14T07:27:04.829Z,22.50
2018-07-14T07:28:04.831Z,22.39
2018-07-14T07:29:04.833Z,22.51
2018-07-14T07:30:04.834Z,22.69
2018-07-14T07:31:04.837Z,22.98
2018-07-14T07:32:04.838Z,23.12
2018-07-14T07:33:04.843Z,23.24
2018-07-14T07:34:04.942Z,23.32
2018-07-14T07:35:04.848Z,23.12
2018-07-14T07:36:04.851Z,23.02
2018-07-14T07:37:04.855Z,23.17
2018-07-14T07:38:04.866Z,23.12
2018-07-14T07:39:04.863Z,23.44
2018-07-14T07:40:04.868Z,23.62
2018-07-14T07:41:04.879Z,23.83
2018-07-14T07:42:05.081Z,23.83
2018-07-14T07:43:04.889Z,23.98
2018-07-14T07:44:04.894Z,24.05
2018-07-14T07:45:04.898Z,24.17
2018-07-14T07:46:04.905Z,24.32
2018-07-14T07:47:04.912Z,24.38
2018-07-14T07:48:04.918Z,24.42
2018-07-14T07:49:04.928Z,24.43
2018-07-14T07:50:04.937Z,24.48
2018-07-14T07:51:04.942Z,24.17
2018-07-14T07:52:04.949Z,24.30
2018-07-14T07:53:04.957Z,24.38
2018-07-14T07:54:04.968Z,24.38
2018-07-14T07:55:04.979Z,24.47
2018-07-14T07:56:04.983Z,24.23
2018-07-14T07:57:04.995Z,24.36
2018-07-14T07:58:05.002Z,24.38
2018-07-14T07:59:05.018Z,24.58
2018-07-14T08:00:05.018Z,24.78
2018-07-14T08:01:05.027Z,24.93
2018-07-14T08:02:05.038Z,25.11
2018-07-14T08:03:05.050Z,25.17
2018-07-14T08:04:05.058Z,25.26
2018-07-14T08:05:05.073Z,25.41
2018-07-14T08:06:05.080Z,25.54
2018-07-14T08:07:05.090Z,25.77
2018-07-14T08:08:05.098Z,25.77
2018-07-14T08:09:05.105Z,25.60
2018-07-14T08:10:05.117Z,25.66
2018-07-14T08:11:05.126Z,25.62
2018-07-14T08:12:05.137Z,25.78
2018-07-14T08:13:05.146Z,25.80
2018-07-14T08:14:05.157Z,25.51
2018-07-14T08:15:05.171Z,25.60
2018-07-14T08:16:05.246Z,25.62
2018-07-14T08:17:05.193Z,25.66
2018-07-14T08:18:05.200Z,25.73
2018-07-14T08:19:05.211Z,25.65
2018-07-14T08:20:05.222Z,25.73
2018-07-14T08:21:05.233Z,25.77
2018-07-14T08:22:05.243Z,25.70
2018-07-14T08:23:05.305Z,25.47
2018-07-14T08:24:05.269Z,25.54
2018-07-14T08:25:05.276Z,25.72
2018-07-14T08:26:05.287Z,25.98
2018-07-14T08:27:05.299Z,26.06
2018-07-14T08:28:05.309Z,26.15
2018-07-14T08:29:05.320Z,26.48
2018-07-14T08:30:05.332Z,26.55
2018-07-14T08:31:05.344Z,26.51
2018-07-14T08:32:05.354Z,26.55
2018-07-14T08:33:05.371Z,26.70
2018-07-14T08:34:05.380Z,26.73
2018-07-14T08:35:05.396Z,26.71
2018-07-14T08:36:05.403Z,26.90
2018-07-14T08:37:05.415Z,26.41
2018-07-14T08:38:05.484Z,26.28
2018-07-14T08:39:05.440Z,26.23
2018-07-14T08:40:05.455Z,26.52
2018-07-14T08:41:05.463Z,26.44
2018-07-14T08:42:05.480Z,26.09
2018-07-14T08:43:05.489Z,26.25
2018-07-14T08:44:05.505Z,26.52
2018-07-14T08:45:05.512Z,26.60
2018-07-14T08:46:05.525Z,26.84
2018-07-14T08:47:05.541Z,26.88
2018-07-14T08:48:05.550Z,26.96
2018-07-14T08:49:05.569Z,26.80
2018-07-14T08:50:05.574Z,26.84
2018-07-14T08:51:05.637Z,27.07
2018-07-14T08:52:05.599Z,27.17
2018-07-14T08:53:05.612Z,27.33
2018-07-14T08:54:05.625Z,27.59
2018-07-14T08:55:05.640Z,27.90
2018-07-14T08:56:05.853Z,27.82
2018-07-14T08:57:05.665Z,27.90
2018-07-14T08:58:05.710Z,27.67
2018-07-14T08:59:05.691Z,27.51
2018-07-14T09:00:05.704Z,27.59
2018-07-14T09:01:05.717Z,27.55
2018-07-14T09:02:05.735Z,27.70
2018-07-14T09:03:05.748Z,27.75
2018-07-14T09:04:05.760Z,27.59
2018-07-14T09:05:05.774Z,27.85
2018-07-14T09:06:05.785Z,27.86
2018-07-14T09:07:05.799Z,27.54
2018-07-14T09:08:05.811Z,27.00
2018-07-14T09:09:05.826Z,27.10
2018-07-14T09:10:05.843Z,27.22
2018-07-14T09:11:05.854Z,27.49
2018-07-14T09:12:05.867Z,27.49
2018-07-14T09:13:05.882Z,27.70
2018-07-14T09:14:05.894Z,27.85
2018-07-14T09:15:05.912Z,28.00
2018-07-14T09:16:05.924Z,28.33
2018-07-14T09:17:05.936Z,28.42
2018-07-14T09:18:05.957Z,28.39
2018-07-14T09:19:05.968Z,28.39
2018-07-14T09:20:05.979Z,28.66
2018-07-14T09:21:05.999Z,28.91
2018-07-14T09:22:06.009Z,29.20
2018-07-14T09:23:06.024Z,29.13
2018-07-14T09:24:06.043Z,29.05
2018-07-14T09:25:06.053Z,28.91
2018-07-14T09:26:06.104Z,28.79
2018-07-14T09:27:06.289Z,28.94
2018-07-14T09:28:06.102Z,28.89
2018-07-14T09:29:06.315Z,28.64
2018-07-14T09:30:06.131Z,28.52
2018-07-14T09:31:06.144Z,28.38
2018-07-14T09:32:06.162Z,28.38
2018-07-14T09:33:06.177Z,28.54
2018-07-14T09:34:06.192Z,28.84
2018-07-14T09:35:06.204Z,28.93
2018-07-14T09:36:06.217Z,28.84
2018-07-14T09:37:06.232Z,28.66
2018-07-14T09:38:06.325Z,28.32
2018-07-14T09:39:06.263Z,28.25
2018-07-14T09:40:06.284Z,27.96
2018-07-14T09:41:06.298Z,28.10
2018-07-14T09:42:06.307Z,28.22
2018-07-14T09:43:06.346Z,28.19
2018-07-14T09:44:06.392Z,28.29
2018-07-14T09:45:06.356Z,28.32
2018-07-14T09:46:06.370Z,28.45
2018-07-14T09:47:06.382Z,28.64
2018-07-14T09:48:06.396Z,28.33
2018-07-14T09:49:06.417Z,28.33
2018-07-14T09:50:06.426Z,28.72
2018-07-14T09:51:06.442Z,28.79
2018-07-14T09:52:06.455Z,28.88
2018-07-14T09:53:06.470Z,28.89
2018-07-14T09:54:06.485Z,29.10
2018-07-14T09:55:06.558Z,29.41
2018-07-14T09:56:06.515Z,29.50
2018-07-14T09:57:06.534Z,29.63
2018-07-14T09:58:06.550Z,29.71
2018-07-14T09:59:06.561Z,29.93
2018-07-14T10:00:06.576Z,30.19
2018-07-14T10:01:06.591Z,30.16
2018-07-14T10:02:06.608Z,30.37
2018-07-14T10:03:06.632Z,30.63
2018-07-14T10:04:06.642Z,30.88
2018-07-14T10:05:06.655Z,30.84
2018-07-14T10:06:06.725Z,30.73
2018-07-14T10:07:06.688Z,30.90
2018-07-14T10:08:06.703Z,30.84
2018-07-14T10:09:06.724Z,31.00
2018-07-14T10:10:06.849Z,31.07
2018-07-14T10:11:06.753Z,31.15
2018-07-14T10:12:06.772Z,31.10
2018-07-14T10:13:06.823Z,31.20
2018-07-14T10:14:06.804Z,31.17
2018-07-14T10:15:06.821Z,31.07
2018-07-14T10:16:06.840Z,31.33
2018-07-14T10:17:06.853Z,31.58
2018-07-14T10:18:06.870Z,31.77
2018-07-14T10:19:06.888Z,31.81
2018-07-14T10:20:06.904Z,31.21
2018-07-14T10:21:06.921Z,31.02
2018-07-14T10:22:06.943Z,30.96
2018-07-14T10:23:06.955Z,31.03
2018-07-14T10:24:06.971Z,31.22
2018-07-14T10:25:07.073Z,31.31
2018-07-14T10:26:07.008Z,31.49
2018-07-14T10:27:07.023Z,31.66
2018-07-14T10:28:07.043Z,31.78
2018-07-14T10:29:07.116Z,31.96
2018-07-14T10:30:07.078Z,31.84
2018-07-14T10:31:07.099Z,31.99
2018-07-14T10:32:07.110Z,32.09
2018-07-14T10:33:07.129Z,31.97
2018-07-14T10:34:07.205Z,31.94
2018-07-14T10:35:07.167Z,32.04
2018-07-14T10:36:07.185Z,31.78
2018-07-14T10:37:07.199Z,31.56
2018-07-14T10:38:07.218Z,31.44
2018-07-14T10:39:07.236Z,31.46
2018-07-14T10:40:07.268Z,31.28
2018-07-14T10:41:07.274Z,30.94
2018-07-14T10:42:07.327Z,30.65
2018-07-14T10:43:07.310Z,30.66
2018-07-14T10:44:07.323Z,30.73
2018-07-14T10:45:07.340Z,30.85
2018-07-14T10:46:07.358Z,31.02
2018-07-14T10:47:07.376Z,31.29
2018-07-14T10:48:07.393Z,31.52
2018-07-14T10:49:07.409Z,31.81
2018-07-14T10:50:07.431Z,32.11
2018-07-14T10:51:07.445Z,31.84
2018-07-14T10:52:07.466Z,31.93
2018-07-14T10:53:07.481Z,32.01
2018-07-14T10:54:07.497Z,32.14
2018-07-14T10:55:07.568Z,32.27
2018-07-14T10:56:07.534Z,32.52
2018-07-14T10:57:07.550Z,32.63
2018-07-14T10:58:07.600Z,32.49
2018-07-14T10:59:07.584Z,32.49
2018-07-14T11:00:07.601Z,32.43
2018-07-14T11:01:07.619Z,32.45
2018-07-14T11:02:07.636Z,31.94
2018-07-14T11:03:07.654Z,31.54
2018-07-14T11:04:07.673Z,31.73
2018-07-14T11:05:07.690Z,31.80
2018-07-14T11:06:07.707Z,31.94
2018-07-14T11:07:07.728Z,32.00
2018-07-14T11:08:07.741Z,32.21
2018-07-14T11:09:07.758Z,32.31
2018-07-14T11:10:07.776Z,32.33
2018-07-14T11:11:07.794Z,32.52
2018-07-14T11:12:07.831Z,32.63
2018-07-14T11:13:07.831Z,32.43
2018-07-14T11:14:07.847Z,32.27
2018-07-14T11:15:07.865Z,31.94
2018-07-14T11:16:07.884Z,31.96
2018-07-14T11:17:07.899Z,31.76
2018-07-14T11:18:07.916Z,31.80
2018-07-14T11:19:07.936Z,32.03
2018-07-14T11:20:07.953Z,32.23
2018-07-14T11:21:07.969Z,32.41
2018-07-14T11:22:07.985Z,32.48
2018-07-14T11:23:08.006Z,32.18
2018-07-14T11:24:08.022Z,31.78
2018-07-14T11:25:08.044Z,31.56
2018-07-14T11:26:08.054Z,31.40
2018-07-14T11:27:08.071Z,31.58
2018-07-14T11:28:08.090Z,31.66
2018-07-14T11:29:08.104Z,31.70
2018-07-14T11:30:08.137Z,31.73
2018-07-14T11:31:08.138Z,31.87
2018-07-14T11:32:08.155Z,32.26
2018-07-14T11:33:08.179Z,32.41
2018-07-14T11:34:08.189Z,32.45
2018-07-14T11:35:08.205Z,32.64
2018-07-14T11:36:08.222Z,32.78
2018-07-14T11:37:08.243Z,32.16
2018-07-14T11:38:08.256Z,31.92
2018-07-14T11:39:08.274Z,31.96
2018-07-14T11:40:08.290Z,32.14
2018-07-14T11:41:08.513Z,32.15
2018-07-14T11:42:08.342Z,32.27
2018-07-14T11:43:08.343Z,32.09
2018-07-14T11:44:08.359Z,31.81
2018-07-14T11:45:08.377Z,31.78
2018-07-14T11:46:08.394Z,31.33
2018-07-14T11:47:08.410Z,30.92
2018-07-14T11:48:08.425Z,30.85
2018-07-14T11:49:08.441Z,30.92
2018-07-14T11:50:08.461Z,30.69
2018-07-14T11:51:08.471Z,30.94
2018-07-14T11:52:08.484Z,31.24
2018-07-14T11:53:08.502Z,31.71
2018-07-14T11:54:08.522Z,31.85
2018-07-14T11:55:08.532Z,32.11
2018-07-14T11:56:08.544Z,32.37
2018-07-14T11:57:08.563Z,32.37
2018-07-14T11:58:08.577Z,32.40
2018-07-14T11:59:08.591Z,32.52
2018-07-14T12:00:08.607Z,32.56
2018-07-14T12:01:08.625Z,32.82
2018-07-14T12:02:08.669Z,32.82
2018-07-14T12:03:08.657Z,32.74
2018-07-14T12:04:08.669Z,32.80
2018-07-14T12:05:08.685Z,32.80
2018-07-14T12:06:08.701Z,33.02
2018-07-14T12:07:08.727Z,33.19
2018-07-14T12:08:08.733Z,33.50
2018-07-14T12:09:08.753Z,33.67
2018-07-14T12:10:08.768Z,33.55
2018-07-14T12:11:08.784Z,33.55
2018-07-14T12:12:08.800Z,33.81
2018-07-14T12:13:08.818Z,33.87
2018-07-14T12:14:08.839Z,33.98
2018-07-14T12:15:08.853Z,33.83
2018-07-14T12:16:08.870Z,33.57
2018-07-14T12:17:08.887Z,33.64
2018-07-14T12:18:08.907Z,33.53
2018-07-14T12:19:08.927Z,33.24
2018-07-14T12:20:09.143Z,33.07
2018-07-14T12:21:08.956Z,32.95
2018-07-14T12:22:08.972Z,33.28
2018-07-14T12:23:08.989Z,32.97
2018-07-14T12:24:09.002Z,32.90
2018-07-14T12:25:09.021Z,33.27
2018-07-14T12:26:09.045Z,33.08
2018-07-14T12:27:09.053Z,33.53
2018-07-14T12:28:09.067Z,33.98
2018-07-14T12:29:09.083Z,34.36
2018-07-14T12:30:09.144Z,34.70
2018-07-14T12:31:09.116Z,35.07
2018-07-14T12:32:09.133Z,35.15
2018-07-14T12:33:09.153Z,35.27
2018-07-14T12:34:09.168Z,35.12
2018-07-14T12:35:09.187Z,35.08
2018-07-14T12:36:09.200Z,35.27
2018-07-14T12:37:09.221Z,35.26
2018-07-14T12:38:09.235Z,35.48
2018-07-14T12:39:09.254Z,35.37
2018-07-14T12:40:09.273Z,35.17
2018-07-14T12:41:09.292Z,35.00
2018-07-14T12:42:09.304Z,34.92
2018-07-14T12:43:09.325Z,34.78
2018-07-14T12:44:09.341Z,34.85
2018-07-14T12:45:09.357Z,34.73
2018-07-14T12:46:09.373Z,34.88
2018-07-14T12:47:09.395Z,34.54
2018-07-14T12:48:09.410Z,34.08
2018-07-14T12:49:09.424Z,34.27
2018-07-14T12:50:09.442Z,34.38
2018-07-14T12:51:09.458Z,34.81
2018-07-14T12:53:09.492Z,34.90